Aeroporto :
LOGIN :

Iscrizione | Disclaimer

   EN    FR    IT 

 










Sommario :    VFR   VFR Marginale   IFR   IFR Intensivo   IFR Molto Intensivo
Visibilità : 
Base nubi : 
>= 8 km
>= 3000ft
5 / 8 km
1000 / 3000 ft
1500m / 5 km
500 / 1000 ft
800 / 1500m
200 / 500 ft
< 800m
< 200 ft
Simboli :   Temporali  Nebbia  Neve Forte  Precipitazioni Forti  Vento > 20 kt
SIGMETs :   Varie  Temporali  Ghiacco  Turbolenza  Onda orograficha  Ceneri Vulcaniche







- Altitudine del aeroporto : 1363 ft


ETIC - Grafenwohr Army Air Field

ULTIMO METAR :
  • 201456Z AUTO 09010G16KT 9999 OVC017 02/00 A2975 RMK AO2 SLP096 T00220001 52009 $

METARs OBSOLETI :
  • 201356Z AUTO 07007KT 9999 OVC017 02/01 A2973 RMK AO2 SLP089 T00240005 $
  • 201256Z AUTO 08013G19KT 9999 OVC017 02/00 A2973 RMK AO2 SLP089 T00220004 $

TAF TAF ETIC
Valido dal 20 a 12 ore il 21 a 18 ore UTC


201200Z 2012/2118 08012G18KT 9999 OVC015 QNH2972INS
BECMG 2015/2016 09010G15KT 9999 SCT015 QNH2973INS
BECMG 2022/2023 09007KT 5000 BR FEW015 QNH2987INS
TEMPO 2105/2108 3200 BR
BECMG 2108/2109 08009KT 9999 NSW OVC012 QNH2987INS TX04/2112Z TNM01/2100Z
Nessun NOTAM noto per questo aeroporto.



MetMap, La meteo Aeronautica in un colpo d'occhio ! - Copyright ORBIFLY Dicembre 2007 - Disclaimer

ORBIFLY MET'MAP TEAM :

Programmazione e sviluppo : Alexandra Zaïnal
Concezione e sviluppo : Baudouin d'Aumeries
Co-Programmazione e sviluppo : Marc-Olivier Méhu
Supporto tecnico e logistico : Manuel Goepfert
Aiuto per la traduzione : Arnaldo La Scala

Contatto : metmap@orbifly.com




FONTI E CREDITI :

   NOAA